createdAt,value
2018-06-24T00:02:29.197Z,6.90
2018-06-24T00:04:59.280Z,10.10
2018-06-24T00:07:30.700Z,9.18
2018-06-24T00:10:04.416Z,6.40
2018-06-24T00:12:38.527Z,8.10
2018-06-24T00:15:07.664Z,7.10
2018-06-24T00:17:36.676Z,8.47
2018-06-24T00:20:06.300Z,9.43
2018-06-24T00:22:36.308Z,12.10
2018-06-24T00:25:09.016Z,12.40
2018-06-24T00:27:38.092Z,7.63
2018-06-24T00:30:08.068Z,7.50
2018-06-24T00:32:37.356Z,9.10
2018-06-24T00:35:09.620Z,9.50
2018-06-24T00:37:44.428Z,9.43
2018-06-24T00:40:14.304Z,13.17
2018-06-24T00:42:44.080Z,6.13
2018-06-24T00:45:14.673Z,11.50
2018-06-24T00:47:43.964Z,8.57
2018-06-24T00:50:14.724Z,8.37
2018-06-24T00:52:46.476Z,7.93
2018-06-24T00:55:15.312Z,9.07
2018-06-24T00:57:44.092Z,12.10
2018-06-24T01:00:19.789Z,7.53
2018-06-24T01:02:52.545Z,7.87
2018-06-24T01:05:21.444Z,20.67
2018-06-24T01:07:57.068Z,7.17
2018-06-24T01:10:27.856Z,7.40
2018-06-24T01:12:58.900Z,8.43
2018-06-24T01:15:32.936Z,8.70
2018-06-24T01:18:01.820Z,6.93
2018-06-24T01:20:31.605Z,8.58
2018-06-24T01:23:00.404Z,7.65
2018-06-24T01:25:29.164Z,10.72
2018-06-24T01:27:58.036Z,7.27
2018-06-24T01:30:27.844Z,10.67
2018-06-24T01:32:56.823Z,8.70
2018-06-24T01:35:27.691Z,11.30
2018-06-24T01:37:56.573Z,10.15
2018-06-24T01:40:26.408Z,13.43
2018-06-24T01:42:56.219Z,7.50
2018-06-24T01:45:27.088Z,8.35
2018-06-24T01:47:55.887Z,7.80
2018-06-24T01:50:25.708Z,15.57
2018-06-24T01:52:55.593Z,10.43
2018-06-24T01:55:26.432Z,9.50
2018-06-24T01:57:55.268Z,13.50
2018-06-24T02:00:24.052Z,8.33
2018-06-24T02:02:54.896Z,10.80
2018-06-24T02:05:24.700Z,12.50
2018-06-24T02:07:55.524Z,8.07
2018-06-24T02:10:30.868Z,10.27
2018-06-24T02:13:01.400Z,10.00
2018-06-24T02:15:30.204Z,9.93
2018-06-24T02:17:59.996Z,11.60
2018-06-24T02:20:28.888Z,12.75
2018-06-24T02:22:58.728Z,7.90
2018-06-24T02:25:28.644Z,9.67
2018-06-24T02:27:59.448Z,11.15
2018-06-24T02:30:28.508Z,9.20
2018-06-24T02:32:58.124Z,10.45
2018-06-24T02:35:29.864Z,13.10
2018-06-24T02:38:04.273Z,9.73
2018-06-24T02:40:34.416Z,15.30
2018-06-24T02:43:13.435Z,10.68
2018-06-24T02:45:43.616Z,10.80
2018-06-24T02:48:12.456Z,10.47
2018-06-24T02:50:41.329Z,12.40
2018-06-24T02:53:10.117Z,9.80
2018-06-24T02:55:38.960Z,9.50
2018-06-24T02:58:07.872Z,9.67
2018-06-24T03:00:41.041Z,11.38
2018-06-24T03:03:10.056Z,12.50
2018-06-24T03:05:42.068Z,14.87
2018-06-24T03:08:11.657Z,11.63
2018-06-24T03:10:45.607Z,10.32
2018-06-24T03:13:19.699Z,11.10
2018-06-24T03:15:52.916Z,15.43
2018-06-24T03:18:27.591Z,10.65
2018-06-24T03:20:59.731Z,15.70
2018-06-24T03:23:28.588Z,11.37
2018-06-24T03:25:58.720Z,14.70
2018-06-24T03:28:34.047Z,9.68
2018-06-24T03:31:06.819Z,10.98
2018-06-24T03:33:39.207Z,15.20
2018-06-24T03:36:09.263Z,10.93
2018-06-24T03:38:43.735Z,11.23
2018-06-24T03:41:16.307Z,13.22
2018-06-24T03:43:46.659Z,11.07
2018-06-24T03:46:17.559Z,13.27
2018-06-24T03:48:48.763Z,12.37
2018-06-24T03:51:23.306Z,11.60
2018-06-24T03:53:57.187Z,12.98
2018-06-24T03:56:26.699Z,14.07
2018-06-24T03:59:01.239Z,15.50
2018-06-24T04:01:31.615Z,12.40
2018-06-24T04:04:07.159Z,13.35
2018-06-24T04:06:36.267Z,10.97
2018-06-24T04:09:06.999Z,12.53
2018-06-24T04:11:38.304Z,11.20
2018-06-24T04:14:09.199Z,11.80
2018-06-24T04:16:40.703Z,13.90
2018-06-24T04:19:10.391Z,11.55
2018-06-24T04:21:42.387Z,10.70
2018-06-24T04:24:11.613Z,13.43
2018-06-24T04:26:41.211Z,11.10
2018-06-24T04:29:15.879Z,13.78
2018-06-24T04:31:48.115Z,11.60
2018-06-24T04:34:18.191Z,13.20
2018-06-24T04:36:47.911Z,12.13
2018-06-24T04:39:18.763Z,11.03
2018-06-24T04:41:53.147Z,13.40
2018-06-24T04:44:26.656Z,11.80
2018-06-24T04:46:57.600Z,11.63
2018-06-24T04:49:28.543Z,14.03
2018-06-24T04:51:57.408Z,12.87
2018-06-24T04:54:28.303Z,12.10
2018-06-24T04:56:58.079Z,11.67
2018-06-24T04:59:27.831Z,11.87
2018-06-24T05:01:59.075Z,18.77
2018-06-24T05:04:32.596Z,15.20
2018-06-24T05:07:01.983Z,12.23
2018-06-24T05:09:35.419Z,9.87
2018-06-24T05:12:05.207Z,15.90
2018-06-24T05:14:39.875Z,14.93
2018-06-24T05:17:11.087Z,11.70
2018-06-24T05:19:44.057Z,12.80
2018-06-24T05:22:16.751Z,11.20
2018-06-24T05:24:45.463Z,11.03
2018-06-24T05:27:14.939Z,12.07
2018-06-24T05:29:47.315Z,14.47
2018-06-24T05:32:17.283Z,11.60
2018-06-24T05:34:49.547Z,12.37
2018-06-24T05:37:22.467Z,11.17
2018-06-24T05:39:51.395Z,10.43
2018-06-24T05:42:20.339Z,13.20
2018-06-24T05:44:51.003Z,12.67
2018-06-24T05:47:24.075Z,10.27
2018-06-24T05:49:53.510Z,9.10
2018-06-24T05:52:26.443Z,9.77
2018-06-24T05:54:55.245Z,9.77
2018-06-24T05:57:27.283Z,9.40
2018-06-24T06:00:04.747Z,9.03
2018-06-24T06:02:36.767Z,11.93
2018-06-24T06:05:11.599Z,12.10
2018-06-24T06:07:42.355Z,10.07
2018-06-24T06:13:07.874Z,13.17
2018-06-24T06:15:40.703Z,9.37
2018-06-24T06:18:11.542Z,9.80
2018-06-24T06:20:40.359Z,11.87
2018-06-24T06:23:10.187Z,8.30
2018-06-24T06:25:42.059Z,9.77
2018-06-24T06:28:15.023Z,15.23
2018-06-24T06:30:44.779Z,14.47
2018-06-24T06:33:13.614Z,12.73
2018-06-24T06:35:44.655Z,10.77
2018-06-24T06:38:17.451Z,9.53
2018-06-24T06:40:47.183Z,9.83
2018-06-24T06:43:15.948Z,7.27
2018-06-24T06:45:54.484Z,11.23
2018-06-24T06:48:26.902Z,10.23
2018-06-24T06:50:59.787Z,9.77
2018-06-24T06:53:32.187Z,7.63
2018-06-24T06:56:14.994Z,6.53
2018-06-24T06:58:58.090Z,6.80
2018-06-24T07:01:30.471Z,10.80
2018-06-24T07:04:06.691Z,6.83
2018-06-24T07:06:35.538Z,7.20
2018-06-24T07:09:11.376Z,8.53
2018-06-24T07:11:42.106Z,8.20
2018-06-24T07:14:10.918Z,7.90
2018-06-24T07:16:42.634Z,7.93
2018-06-24T07:19:13.396Z,11.90
2018-06-24T07:21:42.147Z,4.67
2018-06-24T07:24:30.101Z,8.43
2018-06-24T07:27:19.027Z,8.73
2018-06-24T07:30:01.523Z,5.70
2018-06-24T07:32:31.294Z,5.33
2018-06-24T07:35:01.007Z,8.07
2018-06-24T07:37:40.882Z,4.87
2018-06-24T07:40:17.363Z,5.73
2018-06-24T07:42:51.754Z,4.00
2018-06-24T07:45:38.270Z,3.90
2018-06-24T07:48:08.118Z,5.73
2018-06-24T07:50:41.442Z,8.87
2018-06-24T07:53:14.451Z,5.63
2018-06-24T07:55:43.185Z,10.30
2018-06-24T08:01:10.247Z,4.37
2018-06-24T08:03:40.019Z,6.50
2018-06-24T08:06:12.374Z,9.13
2018-06-24T08:08:41.175Z,5.00
2018-06-24T08:11:13.028Z,7.93
2018-06-24T08:13:42.750Z,4.63
2018-06-24T08:16:34.070Z,3.47
2018-06-24T08:19:07.633Z,5.20
2018-06-24T08:21:41.938Z,5.00
2018-06-24T08:24:10.646Z,5.53
2018-06-24T08:26:42.566Z,4.33
2018-06-24T08:29:14.666Z,3.43
2018-06-24T08:31:48.564Z,172.73
2018-06-24T08:34:17.362Z,7.30
2018-06-24T08:36:46.107Z,4.70
2018-06-24T08:39:25.439Z,5.83
2018-06-24T08:42:00.782Z,15.47
2018-06-24T08:44:35.702Z,3.90
2018-06-24T08:47:11.400Z,4.23
2018-06-24T08:49:41.110Z,6.57
2018-06-24T08:52:13.632Z,5.70
2018-06-24T08:54:42.454Z,2.93
2018-06-24T08:57:12.174Z,4.20
2018-06-24T08:59:40.898Z,3.77
2018-06-24T09:02:10.726Z,3.97
2018-06-24T09:04:41.438Z,5.60
2018-06-24T09:07:11.156Z,4.83
2018-06-24T09:09:40.938Z,4.43
2018-06-24T09:12:10.763Z,2.27
2018-06-24T09:14:39.491Z,2.37
2018-06-24T09:17:14.115Z,1246.93
2018-06-24T09:19:42.955Z,5.07
2018-06-24T09:22:11.748Z,4.87
2018-06-24T09:24:45.802Z,3.93
2018-06-24T09:27:17.639Z,8.30
2018-06-24T09:29:50.455Z,5.30
2018-06-24T09:32:19.307Z,8.43
2018-06-24T09:34:52.074Z,7.73
2018-06-24T09:37:20.844Z,7.37
2018-06-24T09:39:49.650Z,5.20
2018-06-24T09:42:24.151Z,4.23
2018-06-24T09:44:54.015Z,3.73
2018-06-24T09:47:26.757Z,3.70
2018-06-24T09:50:00.540Z,3.67
2018-06-24T09:52:29.347Z,3.07
2018-06-24T09:55:01.391Z,4.20
2018-06-24T09:57:33.370Z,9.40
2018-06-24T10:00:02.203Z,6.00
2018-06-24T10:02:30.946Z,6.00
2018-06-24T10:05:05.763Z,5.33
2018-06-24T10:07:34.482Z,5.47
2018-06-24T10:10:06.763Z,5.80
2018-06-24T10:12:37.559Z,4.93
2018-06-24T10:15:11.842Z,5.33
2018-06-24T10:17:41.583Z,4.03
2018-06-24T10:20:10.375Z,3.83
2018-06-24T10:22:40.186Z,4.60
2018-06-24T10:25:14.658Z,4.33
2018-06-24T10:27:44.454Z,5.07
2018-06-24T10:30:17.379Z,2.63
2018-06-24T10:32:46.191Z,5.20
2018-06-24T10:35:15.002Z,3.43
2018-06-24T10:37:44.798Z,5.07
2018-06-24T10:40:14.629Z,6.00
2018-06-24T10:42:44.410Z,5.80
2018-06-24T10:45:13.179Z,2.63
2018-06-24T10:47:41.890Z,3.53
2018-06-24T10:50:14.970Z,2.60
2018-06-24T10:52:43.826Z,4.63
2018-06-24T10:55:12.566Z,4.27
2018-06-24T10:57:41.353Z,2.90
2018-06-24T11:00:11.122Z,3.13
2018-06-24T11:02:40.890Z,4.27
2018-06-24T11:05:17.002Z,3.57
2018-06-24T11:07:47.738Z,6.83
2018-06-24T11:10:20.371Z,7.40
2018-06-24T11:12:56.698Z,7.47
2018-06-24T11:15:26.445Z,8.53
2018-06-24T11:17:56.278Z,4.20
2018-06-24T11:20:26.030Z,5.00
2018-06-24T11:22:58.754Z,9.47
2018-06-24T11:25:27.513Z,3.50
2018-06-24T11:27:56.282Z,4.60
2018-06-24T11:30:29.507Z,3.83
2018-06-24T11:33:01.534Z,6.10
2018-06-24T11:35:35.261Z,2.97
2018-06-24T11:38:04.042Z,5.33
2018-06-24T11:40:32.801Z,4.30
2018-06-24T11:43:07.822Z,4.63
2018-06-24T11:45:40.001Z,6.30
2018-06-24T11:48:08.857Z,5.53
2018-06-24T11:50:38.618Z,3.17
2018-06-24T11:53:07.357Z,5.30
2018-06-24T11:55:36.209Z,3.93
2018-06-24T11:58:05.921Z,5.30
2018-06-24T12:00:40.533Z,14.47
2018-06-24T12:03:15.657Z,8.40
2018-06-24T12:05:47.602Z,8.20
2018-06-24T12:08:17.562Z,4.37
2018-06-24T12:10:46.343Z,7.20
2018-06-24T12:13:18.125Z,8.13
2018-06-24T12:15:48.949Z,4.30
2018-06-24T12:18:20.893Z,4.90
2018-06-24T12:20:58.117Z,4.47
2018-06-24T12:23:26.982Z,4.97
2018-06-24T12:25:56.778Z,3.60
2018-06-24T12:28:25.569Z,3.20
2018-06-24T12:31:08.402Z,4.70
2018-06-24T12:33:38.150Z,3.03
2018-06-24T12:36:06.898Z,4.57
2018-06-24T12:38:35.653Z,3.20
2018-06-24T12:41:04.466Z,4.10
2018-06-24T12:43:33.232Z,4.67
2018-06-24T12:46:03.114Z,6.67
2018-06-24T12:48:41.482Z,3.10
2018-06-24T12:51:13.961Z,7.93
2018-06-24T12:53:45.909Z,4.10
2018-06-24T12:56:15.086Z,3.30
2018-06-24T12:59:02.576Z,3.23
2018-06-24T13:01:31.226Z,4.97
2018-06-24T13:04:00.957Z,4.30
2018-06-24T13:06:36.045Z,3.17
2018-06-24T13:09:08.152Z,2.77
2018-06-24T13:11:37.949Z,5.53
2018-06-24T13:14:08.805Z,5.33
2018-06-24T13:16:38.529Z,5.27
2018-06-24T13:19:12.076Z,7.60
2018-06-24T13:21:40.885Z,4.33
2018-06-24T13:24:09.645Z,5.20
2018-06-24T13:26:40.457Z,7.13
2018-06-24T13:29:10.136Z,3.30
2018-06-24T13:31:40.965Z,10.23
2018-06-24T13:34:15.640Z,5.70
2018-06-24T13:36:44.482Z,4.83
2018-06-24T13:39:13.332Z,6.87
2018-06-24T13:41:42.057Z,6.37
2018-06-24T13:44:10.879Z,5.30
2018-06-24T13:46:41.605Z,2.40
2018-06-24T13:49:12.397Z,62.60
2018-06-24T13:51:41.156Z,528.53
2018-06-24T13:54:10.438Z,2.40
2018-06-24T13:56:40.165Z,2.17
2018-06-24T13:59:08.917Z,3.50
2018-06-24T14:01:41.225Z,5.53
2018-06-24T14:04:09.998Z,5.03
2018-06-24T14:06:39.097Z,4.50
2018-06-24T14:09:10.232Z,2.70
2018-06-24T14:11:38.985Z,2.33
2018-06-24T14:14:10.477Z,2.30
2018-06-24T14:16:40.369Z,7.60
2018-06-24T14:19:13.001Z,2.57
2018-06-24T14:21:41.765Z,7.40
2018-06-24T14:24:14.165Z,2.10
2018-06-24T14:26:43.905Z,3.23
2018-06-24T14:29:19.233Z,1.93
2018-06-24T14:31:48.505Z,838.03
2018-06-24T14:34:17.305Z,163.13
2018-06-24T14:36:51.309Z,0.30
2018-06-24T14:39:22.192Z,0.30
2018-06-24T14:41:50.953Z,7.13
2018-06-24T14:44:23.620Z,9.70
2018-06-24T14:47:02.973Z,54.67
2018-06-24T14:49:31.683Z,82.83
2018-06-24T14:52:02.431Z,65.60
2018-06-24T14:54:32.249Z,57.37
2018-06-24T14:57:01.061Z,43.70
2018-06-24T14:59:37.052Z,34.20
2018-06-24T15:02:12.992Z,30.10
2018-06-24T15:04:44.612Z,28.07
2018-06-24T15:07:14.273Z,26.20
2018-06-24T15:09:48.540Z,24.37
2018-06-24T15:12:33.263Z,24.80
2018-06-24T15:15:05.916Z,24.80
2018-06-24T15:17:39.804Z,21.10
2018-06-24T15:20:20.520Z,12.63
2018-06-24T15:22:54.780Z,48.70
2018-06-24T15:25:39.088Z,50.50
2018-06-24T15:28:07.812Z,39.80
2018-06-24T15:30:37.576Z,35.27
2018-06-24T15:33:07.365Z,49.40
2018-06-24T15:35:36.180Z,49.40
2018-06-24T15:38:05.264Z,1999.90
2018-06-24T15:40:39.546Z,1999.90
2018-06-24T15:43:09.257Z,1999.90
2018-06-24T15:45:39.959Z,1999.90
2018-06-24T15:48:14.612Z,1999.90
2018-06-24T15:50:43.164Z,1999.90
2018-06-24T15:53:11.808Z,1999.90
2018-06-24T15:55:42.637Z,1999.90
2018-06-24T15:58:14.873Z,1999.90
2018-06-24T16:00:43.708Z,1999.90
2018-06-24T16:03:12.457Z,1999.90
2018-06-24T16:05:53.252Z,1999.90
2018-06-24T16:08:22.001Z,1999.90
2018-06-24T16:10:54.183Z,1999.90
2018-06-24T16:13:23.967Z,1999.90
2018-06-24T16:16:06.998Z,1999.90
2018-06-24T16:18:36.744Z,1999.90
2018-06-24T16:21:05.701Z,1501.40
2018-06-24T16:23:37.409Z,1999.90
2018-06-24T16:26:06.160Z,1999.90
2018-06-24T16:28:40.676Z,1999.90
2018-06-24T16:31:27.153Z,1999.90
2018-06-24T16:34:10.636Z,1999.90
2018-06-24T16:36:39.396Z,1999.90
2018-06-24T16:39:10.588Z,1999.90
2018-06-24T16:41:40.489Z,1999.90
2018-06-24T16:44:19.564Z,1999.90
2018-06-24T16:46:49.396Z,1999.90
2018-06-24T16:49:28.860Z,1999.90
2018-06-24T16:52:08.080Z,1999.90
2018-06-24T16:54:40.512Z,1999.90
2018-06-24T16:57:12.400Z,1999.90
2018-06-24T16:59:44.436Z,1999.90
2018-06-24T17:02:14.176Z,1999.90
2018-06-24T17:04:48.277Z,1999.90
2018-06-24T17:07:36.440Z,1999.90
2018-06-24T17:10:07.044Z,1999.90
2018-06-24T17:12:39.708Z,1999.90
2018-06-24T17:15:11.680Z,1999.90
2018-06-24T17:17:40.492Z,1999.90
2018-06-24T17:20:17.256Z,1999.90
2018-06-24T17:22:46.069Z,1999.90
2018-06-24T17:25:15.005Z,1999.90
2018-06-24T17:27:44.752Z,1999.90
2018-06-24T17:30:24.168Z,1999.90
2018-06-24T17:32:53.988Z,1999.90
2018-06-24T17:35:31.056Z,1999.90
2018-06-24T17:38:00.808Z,1999.90
2018-06-24T17:40:39.104Z,1999.90
2018-06-24T17:43:11.740Z,1999.90
2018-06-24T17:45:40.434Z,1999.90
2018-06-24T17:48:10.252Z,1999.90
2018-06-24T17:50:41.100Z,1999.90
2018-06-24T17:53:10.927Z,1999.90
2018-06-24T17:55:39.476Z,1999.90
2018-06-24T17:58:11.556Z,1999.90
2018-06-24T18:00:40.301Z,1999.90
2018-06-24T18:03:09.081Z,1999.90
2018-06-24T18:05:39.840Z,1999.90
2018-06-24T18:08:14.396Z,1999.90
2018-06-24T18:10:46.668Z,1999.90
2018-06-24T18:13:16.384Z,1999.90
2018-06-24T18:15:48.536Z,1999.90
2018-06-24T18:18:18.244Z,1999.90
2018-06-24T18:20:48.008Z,1999.90
2018-06-24T18:23:16.814Z,1999.90
2018-06-24T18:25:46.036Z,1999.90
2018-06-24T18:28:15.848Z,1999.90
2018-06-24T18:30:45.616Z,1999.90
2018-06-24T18:33:14.574Z,1999.90
2018-06-24T18:35:43.616Z,1999.90
2018-06-24T18:38:12.440Z,1999.90
2018-06-24T18:40:43.323Z,1999.90
2018-06-24T18:43:12.232Z,1999.90
2018-06-24T18:45:47.248Z,1999.90
2018-06-24T18:48:28.504Z,1999.90
2018-06-24T18:50:57.384Z,1999.90
2018-06-24T18:53:26.120Z,1999.90
2018-06-24T18:55:58.246Z,1999.90
2018-06-24T18:58:29.055Z,1999.90
2018-06-24T19:01:07.728Z,1020.13
2018-06-24T19:03:38.520Z,1999.90
2018-06-24T19:06:13.304Z,1999.90
2018-06-24T19:08:45.835Z,1999.90
2018-06-24T19:11:16.604Z,1999.90
2018-06-24T19:14:01.656Z,789.93
2018-06-24T19:16:39.976Z,1999.90
2018-06-24T19:19:08.831Z,1999.90
2018-06-24T19:21:49.583Z,1999.90
2018-06-24T19:24:28.548Z,1999.90
2018-06-24T19:26:57.512Z,1999.90
2018-06-24T19:29:31.084Z,1999.90
2018-06-24T19:32:05.172Z,1999.90
2018-06-24T19:34:38.136Z,1999.90
2018-06-24T19:37:12.063Z,1999.90
2018-06-24T19:39:52.612Z,1999.90
2018-06-24T19:42:25.063Z,1999.90
2018-06-24T19:44:54.815Z,1999.90
2018-06-24T19:47:25.387Z,1999.90
2018-06-24T19:49:59.460Z,1999.90
2018-06-24T19:52:28.184Z,1999.90
2018-06-24T19:54:57.928Z,1999.90
2018-06-24T19:57:27.693Z,1999.90
2018-06-24T20:02:50.283Z,1999.90
2018-06-24T20:05:19.090Z,1999.90
2018-06-24T20:07:53.888Z,1999.90
2018-06-24T20:10:22.758Z,1999.90
2018-06-24T20:12:52.680Z,1999.90
2018-06-24T20:15:24.840Z,1999.90
2018-06-24T20:17:53.716Z,1999.90
2018-06-24T20:20:22.875Z,1999.90
2018-06-24T20:22:56.120Z,1999.90
2018-06-24T20:25:30.264Z,2.90
2018-06-24T20:28:04.939Z,2.63
2018-06-24T20:30:34.879Z,4.70
2018-06-24T20:33:04.456Z,3.03
2018-06-24T20:35:34.431Z,4.00
2018-06-24T20:38:08.900Z,2.40
2018-06-24T20:40:44.719Z,2.80
2018-06-24T20:43:19.345Z,3.23
2018-06-24T20:45:48.161Z,5.30
2018-06-24T20:48:21.015Z,4.07
2018-06-24T20:50:53.678Z,6.40
2018-06-24T20:53:24.903Z,2.80
2018-06-24T20:55:57.127Z,2.07
2018-06-24T20:58:27.083Z,10.40
2018-06-24T21:00:56.979Z,3.43
2018-06-24T21:03:26.879Z,2.43
2018-06-24T21:05:55.723Z,2.20
2018-06-24T21:08:30.204Z,2.53
2018-06-24T21:10:59.207Z,2.50
2018-06-24T21:13:29.807Z,4.40
2018-06-24T21:16:01.039Z,3.27
2018-06-24T21:18:44.828Z,3.83
2018-06-24T21:21:23.995Z,5.23
2018-06-24T21:23:57.766Z,2.13
2018-06-24T21:26:30.247Z,2.80
2018-06-24T21:29:05.915Z,1.90
2018-06-24T21:31:35.059Z,1.93
2018-06-24T21:34:05.431Z,3.33
2018-06-24T21:36:36.503Z,2.70
2018-06-24T21:39:08.339Z,7.60
2018-06-24T21:41:37.338Z,2.50
2018-06-24T21:44:08.780Z,7.77
2018-06-24T21:46:38.629Z,5.03
2018-06-24T21:49:13.571Z,2.80
2018-06-24T21:51:43.331Z,2.37
2018-06-24T21:54:12.211Z,5.93
2018-06-24T21:56:42.231Z,3.10
2018-06-24T21:59:17.303Z,5.97
2018-06-24T22:01:47.227Z,4.07
2018-06-24T22:04:16.091Z,5.60
2018-06-24T22:06:51.267Z,4.07
2018-06-24T22:09:19.999Z,2.50
2018-06-24T22:11:51.819Z,3.43
2018-06-24T22:14:24.227Z,4.27
2018-06-24T22:16:58.483Z,2.90
2018-06-24T22:19:33.391Z,3.90
2018-06-24T22:22:08.739Z,2.50
2018-06-24T22:24:39.716Z,3.47
2018-06-24T22:27:11.251Z,3.10
2018-06-24T22:29:42.123Z,5.83
2018-06-24T22:32:10.907Z,6.00
2018-06-24T22:34:40.351Z,2.63
2018-06-24T22:37:10.175Z,6.30
2018-06-24T22:39:38.975Z,3.00
2018-06-24T22:42:08.859Z,2.50
2018-06-24T22:44:38.027Z,5.97
2018-06-24T22:47:10.615Z,5.87
2018-06-24T22:49:48.391Z,2.43
2018-06-24T22:52:20.012Z,3.27
2018-06-24T22:54:52.295Z,3.13
2018-06-24T22:57:24.323Z,2.80
2018-06-24T23:00:17.607Z,5.67
2018-06-24T23:02:46.827Z,2.27
2018-06-24T23:05:15.892Z,2.67
2018-06-24T23:07:45.315Z,2.33
2018-06-24T23:10:15.187Z,5.23
2018-06-24T23:12:45.021Z,2.23
2018-06-24T23:15:13.808Z,2.40
2018-06-24T23:17:44.647Z,2.50
2018-06-24T23:20:14.751Z,3.07
2018-06-24T23:22:43.608Z,2.43
2018-06-24T23:25:12.463Z,5.23
2018-06-24T23:27:46.127Z,4.03
2018-06-24T23:30:16.959Z,6.50
2018-06-24T23:32:48.107Z,3.23
2018-06-24T23:35:19.126Z,3.60
2018-06-24T23:37:48.003Z,3.17
2018-06-24T23:40:16.776Z,3.63
2018-06-24T23:42:47.579Z,3.57
2018-06-24T23:45:23.915Z,2.40
2018-06-24T23:48:11.639Z,3.30
2018-06-24T23:50:40.551Z,2.60
2018-06-24T23:53:11.139Z,2.10
2018-06-24T23:55:40.151Z,4.73
2018-06-24T23:58:09.023Z,2.73
